• Join FlightAware (Why Join?)
  • Login
  • US Flag 
11:12AM EDT


 

Airport Tracker/Info


-or-


 

Live Flight TrackerFlight Track Log ✈ GJS3707 ✈ 15/Jul/2013 ✈ KBOI - KORD

Flight Track Log - Related Links

Times and Time Zones

All times are in EDT time to prevent confusion due to time zone crossing. See the GJS3707 flight status page for this flight to view local times or setup timezone preferences in your user account.

Time Position Orientation Groundspeed Altitude Reporting Facility
EDT Latitude Longitude Course Direction KTS MPH feet Rate Location/Type
03:29PM 43.6172 -116.3872 294° West 262 302 5,500  Level Salt Lake Center
03:30PM 43.6919 -116.3983 354° North 288 331 7,700 1,920 Climbing Salt Lake Center
03:31PM 43.6476 -115.5740 82° East  Level FlightAware Approximate
03:31PM 43.7172 -116.2986 71° East 289 333 9,600  Level Salt Lake Center
03:32PM 43.6689 -115.4137 81° East  Level FlightAware Approximate
03:32PM 43.7292 -116.1878 81° East 303 349 11,000  Level Salt Lake Center
03:33PM 43.6936 -115.2525 65° Northeast  Level FlightAware Approximate
03:33PM 43.7442 -116.0461 82° East 333 383 12,800  Level Salt Lake Center
03:34PM 43.7161 -115.0892 81° East  Level FlightAware Approximate
03:34PM 43.7578 -115.9186 82° East 346 398 14,500  Level Salt Lake Center
03:36PM 43.7744 -115.7653 81° East 359 413 16,300 1,380 Climbing Salt Lake Center
03:37PM 43.7889 -115.6242 82° East 383 441 17,400 1,080 Climbing Salt Lake Center
03:38PM 43.8069 -115.4472 82° East 416 479 18,600 1,260 Climbing Salt Lake Center
03:39PM 43.8233 -115.2911 82° East 428 493 20,100 1,500 Climbing Salt Lake Center
03:40PM 43.8417 -115.1078 82° East 432 497 21,800 1,320 Climbing Salt Lake Center
03:41PM 43.8583 -114.9489 82° East 437 503 22,900 1,020 Climbing Salt Lake Center
03:42PM 43.8761 -114.7569 83° East 451 519 24,000 1,020 Climbing Salt Lake Center
03:43PM 43.8928 -114.5906 82° East 458 527 25,000 960 Climbing Salt Lake Center
03:44PM 43.9111 -114.3914 83° East 468 539 26,100 960 Climbing Salt Lake Center
03:45PM 43.9275 -114.2197 82° East 472 543 27,100 960 Climbing Salt Lake Center
03:46PM 43.9456 -114.0175 83° East 475 547 28,200 960 Climbing Salt Lake Center
03:47PM 43.9617 -113.8325 83° East 476 548 29,200 780 Climbing Salt Lake Center
03:48PM 43.9769 -113.6556 83° East 484 557 29,900 360 Climbing Salt Lake Center
03:49PM 43.9917 -113.4464 84° East 488 562 30,000  Climbing Salt Lake Center
03:50PM 44.0064 -113.2569 84° East 512 589 30,000  Level Salt Lake Center
03:51PM 44.0239 -113.0658 83° East 521 600 30,000 360 Level Salt Lake Center
03:52PM 44.0425 -112.8431 83° East 521 600 30,800 840 Climbing Salt Lake Center
03:53PM 44.0556 -112.6561 84° East 512 589 31,800 900 Climbing Salt Lake Center
03:54PM 44.0714 -112.4419 84° East 502 578 32,700 720 Climbing Salt Lake Center
03:55PM 44.0847 -112.2572 84° East 504 580 33,400 720 Climbing Salt Lake Center
03:56PM 44.0894 -112.0450 88° East 496 571 34,200 720 Climbing Salt Lake Center
03:57PM 44.0914 -111.8647 89° East 492 566 34,900 660 Climbing Salt Lake Center
03:58PM 44.0917 -111.6531 90° East 494 568 35,600 660 Climbing Salt Lake Center
03:59PM 44.0933 -111.4717 89° East 494 568 36,300 660 Climbing Salt Lake Center
04:00PM 44.0939 -111.2639 90° East 487 560 37,000 300 Climbing Salt Lake Center
04:01PM 44.0936 -111.0833 90° East 488 562 37,000  Level Salt Lake Center
04:02PM 44.0931 -110.8681 90° East 500 575 37,000  Level Salt Lake Center
04:03PM 44.0933 -110.6836 90° East 501 577 37,000  Level Salt Lake Center
04:04PM 44.0928 -110.4631 90° East 509 586 37,000  Level Salt Lake Center
04:05PM 44.0919 -110.2761 90° East 507 583 37,000  Level Salt Lake Center
04:06PM 44.0903 -110.0569 91° East 509 586 37,000  Level Salt Lake Center
04:07PM 44.0883 -109.8681 91° East 509 586 37,000  Level Salt Lake Center
04:09PM 44.0856 -109.6481 91° East 510 587 37,000  Level Salt Lake Center
04:10PM 44.0836 -109.4594 91° East 512 589 37,000  Level Salt Lake Center
04:11PM 44.0786 -109.2458 92° East 507 583 37,000  Level Salt Lake Center
04:12PM 44.0758 -109.0489 91° East 511 588 37,000  Level Salt Lake Center
04:13PM 44.0714 -108.8536 92° East 510 587 37,000  Level Salt Lake Center
04:14PM 44.0675 -108.6578 92° East 510 587 37,000  Level Salt Lake Center
04:15PM 44.0639 -108.4628 91° East 509 586 37,000  Level Salt Lake Center
04:16PM 44.0583 -108.2689 92° East 507 583 37,000  Level Salt Lake Center
04:17PM 44.0533 -108.0350 92° East 508 585 37,000  Level Salt Lake Center
04:18PM 44.0469 -107.8411 93° East 507 583 37,000  Level Salt Lake Center
04:19PM 44.0417 -107.6481 92° East 506 582 37,000  Level Salt Lake Center
04:20PM 44.0358 -107.4567 92° East 502 578 37,000  Level Salt Lake Center
04:21PM 44.0297 -107.2639 92° East 503 579 37,000  Level Salt Lake Center
04:22PM 44.0253 -107.1094 92° East 504 580 37,000  Level Denver Center
04:23PM 44.0167 -106.8792 93° East 503 579 37,000  Level Denver Center
04:24PM 44.0103 -106.7100 93° East 498 573 37,000  Level Denver Center
04:25PM 44.0028 -106.4939 93° East 501 577 37,000  Level Denver Center
04:26PM 44.0008 -106.3081 91° East 500 575 37,000  Level Denver Center
04:27PM 44.0044 -106.0911 89° East 502 578 37,000  Level Denver Center
04:28PM 44.0039 -105.9078 90° East 499 574 37,000  Level Denver Center
04:29PM 44.0044 -105.6922 90° East 499 574 37,000  Level Denver Center
04:30PM 44.0047 -105.5072 90° East 499 574 37,000  Level Denver Center
04:31PM 44.0050 -105.2917 90° East 499 574 37,000  Level Denver Center
04:32PM 44.0036 -105.1072 91° East 499 574 37,000  Level Denver Center
04:33PM 44.0031 -104.9247 90° East 496 571 37,000  Level Denver Center
04:34PM 44.0008 -104.7106 91° East 496 571 37,000  Level Denver Center
04:35PM 44.0008 -104.5275 90° East 495 570 37,000  Level Denver Center
04:36PM 43.9981 -104.3144 91° East 495 570 37,000  Level Denver Center
04:37PM 43.9958 -104.1328 91° East 494 568 37,000  Level Denver Center
04:38PM 43.9933 -103.9194 91° East 494 568 37,000  Level Denver Center
04:39PM 43.9900 -103.7364 91° East 495 570 37,000  Level Denver Center
04:40PM 43.9867 -103.5533 91° East 495 570 37,000  Level Denver Center
04:41PM 43.9847 -103.3436 91° East 489 563 37,000  Level Denver Center
04:42PM 43.9819 -103.1642 91° East 487 560 37,000  Level Denver Center
04:43PM 43.9769 -102.9511 92° East 491 565 37,000  Level Denver Center
04:44PM 43.9708 -102.7567 92° East 492 566 37,000  Level Denver Center
04:45PM 43.9650 -102.5692 92° East 489 563 37,000  Level Denver Center
04:46PM 43.9569 -102.3789 93° East 491 565 37,000  Level Denver Center
04:47PM 43.9503 -102.1911 93° East 491 565 37,000  Level Denver Center
04:48PM 43.9419 -102.0019 93° East 492 566 37,000  Level Denver Center
04:50PM 43.9347 -101.8144 93° East 490 564 37,000  Level Denver Center
04:51PM 43.9319 -101.5969 91° East 478 550 37,000  Level Denver Center
04:52PM 43.9239 -101.4103 93° East 484 557 37,000  Level Denver Center
04:53PM 43.9169 -101.2253 93° East 483 556 37,000  Level Denver Center
04:53PM 43.9111 -101.0783 93° East 483 556 37,000  Level Minneapolis Center
04:55PM 43.9033 -100.8928 93° East 483 556 37,000  Level Minneapolis Center
04:56PM 43.8928 -100.6714 94° East 483 556 37,000  Level Minneapolis Center
04:57PM 43.8844 -100.4858 94° East 484 557 37,000  Level Minneapolis Center
04:58PM 43.8747 -100.3008 94° East 485 558 37,000  Level Minneapolis Center
04:59PM 43.8667 -100.1178 93° East 482 555 37,000  Level Minneapolis Center
05:00PM 43.8581 -99.9372 94° East 476 548 37,000  Level Minneapolis Center
05:01PM 43.8475 -99.7564 95° East 475 547 37,000  Level Minneapolis Center
05:02PM 43.8350 -99.5406 95° East 471 542 37,000  Level Minneapolis Center
05:03PM 43.8267 -99.3603 94° East 471 542 37,000  Level Minneapolis Center
05:04PM 43.8156 -99.1828 95° East 468 539 37,000  Level Minneapolis Center
05:05PM 43.8042 -99.0033 95° East 469 540 37,000  Level Minneapolis Center
05:06PM 43.7936 -98.8231 95° East 471 542 37,000  Level Minneapolis Center
05:07PM 43.7828 -98.6317 94° East 473 544 37,000  Level Minneapolis Center
05:08PM 43.7706 -98.4519 95° East 471 542 37,000  Level Minneapolis Center
05:09PM 43.7564 -98.2367 95° East 470 541 37,000  Level Minneapolis Center
05:10PM 43.7447 -98.0572 95° East 470 541 37,000  Level Minneapolis Center
05:11PM 43.7322 -97.8794 95° East 468 539 37,000  Level Minneapolis Center
05:12PM 43.7189 -97.7008 96° East 469 540 37,000  Level Minneapolis Center
05:13PM 43.7064 -97.5231 95° East 468 539 37,000  Level Minneapolis Center
05:14PM 43.6931 -97.3461 96° East 467 537 37,000  Level Minneapolis Center
05:15PM 43.6769 -97.1347 96° East 465 535 37,000  Level Minneapolis Center
05:16PM 43.6625 -96.9569 96° East 468 539 37,000  Level Minneapolis Center
05:17PM 43.6483 -96.7811 96° East 466 536 37,000  Level Minneapolis Center
05:18PM 43.6247 -96.6092 101° East 462 532 37,000  Level Minneapolis Center
05:19PM 43.5931 -96.4025 102° East 463 533 37,000  Level Minneapolis Center
05:20PM 43.5681 -96.2303 101° East 463 533 37,000  Level Minneapolis Center
05:21PM 43.5503 -96.0564 98° East 465 535 37,000  Level Minneapolis Center
05:22PM 43.5400 -95.8786 94° East 469 540 37,000  Level Minneapolis Center
05:24PM 43.5283 -95.7028 95° East 467 537 37,000  Level Minneapolis Center
05:25PM 43.5169 -95.5269 95° East 466 536 37,000  Level Minneapolis Center
05:26PM 43.5022 -95.3150 95° East 465 535 37,000  Level Minneapolis Center
05:27PM 43.4889 -95.1381 96° East 466 536 37,000  Level Minneapolis Center
05:28PM 43.4753 -94.9617 96° East 466 536 37,000  Level Minneapolis Center
05:29PM 43.4625 -94.7833 96° East 468 539 37,000  Level Minneapolis Center
05:30PM 43.4461 -94.5708 96° East 468 539 37,000  Level Minneapolis Center
05:31PM 43.4300 -94.3572 96° East 469 540 37,000  Level Minneapolis Center
05:32PM 43.4150 -94.1767 96° East 471 542 37,000  Level Minneapolis Center
05:33PM 43.4000 -93.9994 97° East 471 542 37,000  Level Minneapolis Center
05:34PM 43.3864 -93.8228 96° East 471 542 37,000  Level Minneapolis Center
05:35PM 43.3706 -93.6447 97° East 473 544 37,000  Level Minneapolis Center
05:36PM 43.3525 -93.4325 97° East 471 542 37,000  Level Minneapolis Center
05:37PM 43.3364 -93.2550 97° East 472 543 37,000  Level Minneapolis Center
05:38PM 43.3217 -93.0767 96° East 474 545 37,000  Level Minneapolis Center
05:39PM 43.3050 -92.8989 97° East 473 544 37,000  Level Minneapolis Center
05:40PM 43.2886 -92.7214 97° East 473 544 37,000 -180 Level Minneapolis Center
05:42PM 43.2664 -92.4700 97° East 476 548 36,700 -720 Descending Minneapolis Center
05:43PM 43.2522 -92.3283 98° East 475 547 35,600 -1,260 Descending Minneapolis Center
05:44PM 43.2319 -92.1189 97° East 467 537 34,100 -1,380 Descending Minneapolis Center
05:45PM 43.2153 -91.9419 97° East 468 539 32,800 -1,260 Descending Minneapolis Center
05:46PM 43.1975 -91.7619 98° East 474 545 31,500 -900 Descending Minneapolis Center
05:47PM 43.1622 -91.5878 105° East 478 550 31,000 -240 Descending Minneapolis Center
05:48PM 43.0814 -91.3564 115° Southeast 483 556 31,000  Level Chicago Center
05:49PM 43.0231 -91.1883 115° Southeast 487 560 31,000  Level Chicago Center
05:50PM 42.9647 -91.0211 115° Southeast 489 563 31,000  Level Chicago Center
05:51PM 42.9067 -90.8553 115° Southeast 488 562 31,000  Level Chicago Center
05:52PM 42.8475 -90.6883 116° Southeast 493 567 31,000  Level Chicago Center
05:53PM 42.7897 -90.5239 116° Southeast 487 560 31,000 -300 Level Chicago Center
05:54PM 42.7192 -90.3264 116° Southeast 488 562 30,500 -1,020 Descending Chicago Center
05:55PM 42.6586 -90.1653 117° Southeast 478 550 29,000 -1,500 Descending Chicago Center
05:56PM 42.6053 -90.0167 116° Southeast 457 526 27,500 -1,680 Descending Chicago Center
05:57PM 42.5472 -89.8606 117° Southeast 454 522 25,600 -2,400 Descending Chicago Center
05:58PM 42.5144 -89.6758 103° East 444 511 22,600 -2,640 Descending Chicago Center
05:59PM 42.5128 -89.5144 91° East 435 501 20,200 -2,160 Descending Chicago Center
06:00PM 42.5089 -89.3572 92° East 423 487 18,200 -1,800 Descending Chicago Center
06:01PM 42.5075 -89.2083 91° East 403 464 16,500 -1,800 Descending Chicago Center
06:02PM 42.5067 -89.0636 90° East 389 448 14,500 -2,100 Descending Chicago Center
06:03PM 42.4961 -88.9064 95° East 368 423 12,200 -2,040 Descending Chicago Center
06:04PM 42.4600 -88.7794 111° Southeast 363 418 10,300 -1,260 Descending Chicago Center
06:05PM 42.4283 -88.6775 113° Southeast 301 346 9,600 -660 Descending Chicago Center
06:07PM 42.3981 -88.5797 113° Southeast 284 327 9,000 -300 Descending Chicago Center
06:08PM 42.3639 -88.4811 115° Southeast 291 335 9,000  Level Chicago Center
06:09PM 42.2936 -88.4386 156° South 276 318 9,000 -540 Level Chicago Center
06:10PM 42.2244 -88.3931 154° Southeast 277 319 7,900 -1,620 Descending Chicago Center
06:11PM 42.1472 -88.3281 148° Southeast 275 316 5,700 -1,860 Descending Chicago Center
06:12PM 42.0878 -88.2678 143° Southeast 271 312 4,100 -840 Descending Chicago Center
06:13PM 42.0300 -88.2114 144° Southeast 263 303 4,000 -300 Descending Chicago Center
06:14PM 41.9933 -88.1567 132° Southeast 214 246 3,500 -540 Descending Chicago Center